sensor_id;sensor_type;location;lat;lon;timestamp;pressure;altitude;pressure_sealevel;temperature;humidity
26563;BME280;14217;50.986;5.826;2022-12-20T00:00:12;100859.66;;;15.76;45.42
26563;BME280;14217;50.986;5.826;2022-12-20T00:05:15;100858.69;;;15.78;45.24
26563;BME280;14217;50.986;5.826;2022-12-20T00:10:17;100868.25;;;15.82;45.34
26563;BME280;14217;50.986;5.826;2022-12-20T00:15:18;100868.09;;;15.87;45.23
26563;BME280;14217;50.986;5.826;2022-12-20T00:20:20;100872.53;;;15.87;45.27
26563;BME280;14217;50.986;5.826;2022-12-20T00:25:23;100872.47;;;15.88;44.90
26563;BME280;14217;50.986;5.826;2022-12-20T00:30:25;100867.56;;;15.77;45.18
26563;BME280;14217;50.986;5.826;2022-12-20T00:35:27;100860.78;;;15.95;44.95
26563;BME280;14217;50.986;5.826;2022-12-20T00:40:29;100847.06;;;15.84;45.20
26563;BME280;14217;50.986;5.826;2022-12-20T00:45:31;100839.97;;;15.86;45.17
26563;BME280;14217;50.986;5.826;2022-12-20T00:50:33;100837.19;;;15.89;44.85
26563;BME280;14217;50.986;5.826;2022-12-20T00:55:40;100828.16;;;15.96;44.71
26563;BME280;14217;50.986;5.826;2022-12-20T01:00:43;100832.19;;;15.81;45.15
26563;BME280;14217;50.986;5.826;2022-12-20T01:05:52;100820.41;;;15.92;44.72
26563;BME280;14217;50.986;5.826;2022-12-20T01:11:14;100821.34;;;15.89;44.96
26563;BME280;14217;50.986;5.826;2022-12-20T01:16:28;100832.72;;;15.91;45.09
26563;BME280;14217;50.986;5.826;2022-12-20T01:21:31;100835.44;;;15.90;44.80
26563;BME280;14217;50.986;5.826;2022-12-20T01:26:32;100833.50;;;15.95;44.87
26563;BME280;14217;50.986;5.826;2022-12-20T01:31:34;100828.88;;;16.01;44.70
26563;BME280;14217;50.986;5.826;2022-12-20T01:36:37;100828.34;;;15.92;45.05
26563;BME280;14217;50.986;5.826;2022-12-20T01:41:40;100811.22;;;16.02;44.59
26563;BME280;14217;50.986;5.826;2022-12-20T01:46:44;100804.19;;;16.02;44.38
26563;BME280;14217;50.986;5.826;2022-12-20T01:51:53;100815.09;;;16.17;44.07
26563;BME280;14217;50.986;5.826;2022-12-20T01:56:59;100801.59;;;16.01;44.60
26563;BME280;14217;50.986;5.826;2022-12-20T02:02:05;100791.41;;;16.15;44.35
26563;BME280;14217;50.986;5.826;2022-12-20T02:07:12;100804.88;;;16.08;44.27
26563;BME280;14217;50.986;5.826;2022-12-20T02:12:26;100793.31;;;16.10;44.19
26563;BME280;14217;50.986;5.826;2022-12-20T02:18:01;100809.47;;;16.02;44.63
26563;BME280;14217;50.986;5.826;2022-12-20T02:23:52;100803.97;;;16.09;44.24
26563;BME280;14217;50.986;5.826;2022-12-20T02:34:11;100805.69;;;16.10;44.52
26563;BME280;14217;50.986;5.826;2022-12-20T02:39:13;100797.78;;;16.08;44.32
26563;BME280;14217;50.986;5.826;2022-12-20T02:44:20;100788.03;;;16.35;43.63
26563;BME280;14217;50.986;5.826;2022-12-20T02:49:42;100778.59;;;16.28;43.87
26563;BME280;14217;50.986;5.826;2022-12-20T02:54:46;100778.66;;;16.26;43.85
26563;BME280;14217;50.986;5.826;2022-12-20T02:59:55;100782.22;;;16.00;44.42
26563;BME280;14217;50.986;5.826;2022-12-20T03:04:58;100774.50;;;16.19;44.08
26563;BME280;14217;50.986;5.826;2022-12-20T03:10:01;100780.59;;;16.21;43.99
26563;BME280;14217;50.986;5.826;2022-12-20T03:15:03;100771.69;;;16.24;43.74
26563;BME280;14217;50.986;5.826;2022-12-20T03:20:06;100762.91;;;16.23;44.12
26563;BME280;14217;50.986;5.826;2022-12-20T03:25:08;100758.78;;;16.15;44.00
26563;BME280;14217;50.986;5.826;2022-12-20T03:30:10;100765.66;;;16.20;44.05
26563;BME280;14217;50.986;5.826;2022-12-20T03:35:13;100757.53;;;16.25;43.87
26563;BME280;14217;50.986;5.826;2022-12-20T03:40:15;100769.22;;;16.19;44.20
26563;BME280;14217;50.986;5.826;2022-12-20T03:45:17;100775.25;;;16.23;44.01
26563;BME280;14217;50.986;5.826;2022-12-20T03:50:19;100779.47;;;16.03;44.47
26563;BME280;14217;50.986;5.826;2022-12-20T03:55:20;100773.19;;;16.06;44.37
26563;BME280;14217;50.986;5.826;2022-12-20T04:00:22;100771.53;;;16.29;43.92
26563;BME280;14217;50.986;5.826;2022-12-20T04:05:25;100765.13;;;16.11;44.53
26563;BME280;14217;50.986;5.826;2022-12-20T04:10:26;100759.38;;;16.23;44.05
26563;BME280;14217;50.986;5.826;2022-12-20T04:15:28;100753.66;;;16.35;43.68
26563;BME280;14217;50.986;5.826;2022-12-20T04:20:30;100746.75;;;16.31;43.92
26563;BME280;14217;50.986;5.826;2022-12-20T04:25:32;100751.81;;;16.37;43.68
26563;BME280;14217;50.986;5.826;2022-12-20T04:30:34;100751.81;;;16.37;43.83
26563;BME280;14217;50.986;5.826;2022-12-20T04:35:36;100741.94;;;16.42;43.75
26563;BME280;14217;50.986;5.826;2022-12-20T04:40:38;100740.66;;;16.29;43.92
26563;BME280;14217;50.986;5.826;2022-12-20T04:45:40;100736.06;;;16.34;43.80
26563;BME280;14217;50.986;5.826;2022-12-20T04:50:42;100722.78;;;16.36;43.76
26563;BME280;14217;50.986;5.826;2022-12-20T04:55:44;100715.31;;;16.47;43.32
26563;BME280;14217;50.986;5.826;2022-12-20T05:00:46;100698.84;;;16.40;43.63
26563;BME280;14217;50.986;5.826;2022-12-20T05:05:48;100692.03;;;16.33;43.78
26563;BME280;14217;50.986;5.826;2022-12-20T05:10:51;100692.84;;;16.35;43.84
26563;BME280;14217;50.986;5.826;2022-12-20T05:15:54;100708.00;;;16.54;43.36
26563;BME280;14217;50.986;5.826;2022-12-20T05:20:57;100703.19;;;16.41;43.42
26563;BME280;14217;50.986;5.826;2022-12-20T05:26:19;100708.88;;;16.31;43.63
26563;BME280;14217;50.986;5.826;2022-12-20T05:31:21;100696.84;;;16.45;43.40
26563;BME280;14217;50.986;5.826;2022-12-20T05:36:23;100689.38;;;16.57;43.18
26563;BME280;14217;50.986;5.826;2022-12-20T05:41:25;100695.38;;;16.38;43.85
26563;BME280;14217;50.986;5.826;2022-12-20T05:46:27;100688.03;;;16.46;43.56
26563;BME280;14217;50.986;5.826;2022-12-20T05:51:29;100671.41;;;16.43;43.52
26563;BME280;14217;50.986;5.826;2022-12-20T05:56:31;100671.22;;;16.48;43.70
26563;BME280;14217;50.986;5.826;2022-12-20T06:01:33;100660.47;;;16.29;44.03
26563;BME280;14217;50.986;5.826;2022-12-20T06:06:36;100658.13;;;16.44;43.57
26563;BME280;14217;50.986;5.826;2022-12-20T06:11:38;100648.69;;;16.37;43.56
26563;BME280;14217;50.986;5.826;2022-12-20T06:16:40;100639.16;;;16.33;43.80
26563;BME280;14217;50.986;5.826;2022-12-20T06:21:42;100638.16;;;16.36;43.88
26563;BME280;14217;50.986;5.826;2022-12-20T06:26:44;100625.78;;;16.60;43.31
26563;BME280;14217;50.986;5.826;2022-12-20T06:31:49;100647.78;;;16.60;43.39
26563;BME280;14217;50.986;5.826;2022-12-20T06:36:51;100633.38;;;16.45;43.55
26563;BME280;14217;50.986;5.826;2022-12-20T06:41:53;100638.69;;;16.45;43.68
26563;BME280;14217;50.986;5.826;2022-12-20T06:46:55;100634.31;;;16.44;43.66
26563;BME280;14217;50.986;5.826;2022-12-20T06:51:57;100599.19;;;16.63;42.97
26563;BME280;14217;50.986;5.826;2022-12-20T06:56:59;100607.47;;;16.55;43.30
26563;BME280;14217;50.986;5.826;2022-12-20T07:02:00;100610.56;;;16.65;43.15
26563;BME280;14217;50.986;5.826;2022-12-20T07:07:04;100602.53;;;16.68;42.97
26563;BME280;14217;50.986;5.826;2022-12-20T07:12:07;100613.16;;;16.66;43.02
26563;BME280;14217;50.986;5.826;2022-12-20T07:17:09;100619.25;;;16.69;43.32
26563;BME280;14217;50.986;5.826;2022-12-20T07:22:11;100623.09;;;16.61;43.33
26563;BME280;14217;50.986;5.826;2022-12-20T07:27:13;100624.41;;;16.72;43.26
26563;BME280;14217;50.986;5.826;2022-12-20T07:32:15;100649.81;;;16.54;43.69
26563;BME280;14217;50.986;5.826;2022-12-20T07:37:17;100644.03;;;16.44;43.80
26563;BME280;14217;50.986;5.826;2022-12-20T07:42:19;100648.88;;;16.55;43.52
26563;BME280;14217;50.986;5.826;2022-12-20T07:47:21;100640.94;;;16.78;43.08
26563;BME280;14217;50.986;5.826;2022-12-20T07:52:24;100637.63;;;16.72;43.13
26563;BME280;14217;50.986;5.826;2022-12-20T07:57:42;100627.69;;;16.78;43.21
26563;BME280;14217;50.986;5.826;2022-12-20T08:02:48;100628.66;;;16.76;43.07
26563;BME280;14217;50.986;5.826;2022-12-20T08:07:53;100620.97;;;16.70;43.29
26563;BME280;14217;50.986;5.826;2022-12-20T08:13:00;100631.97;;;16.59;43.46
26563;BME280;14217;50.986;5.826;2022-12-20T08:18:02;100632.97;;;16.78;42.92
26563;BME280;14217;50.986;5.826;2022-12-20T08:23:04;100642.63;;;16.79;42.82
26563;BME280;14217;50.986;5.826;2022-12-20T08:28:06;100647.72;;;16.85;42.57
26563;BME280;14217;50.986;5.826;2022-12-20T08:33:08;100652.34;;;16.79;43.03
26563;BME280;14217;50.986;5.826;2022-12-20T08:38:10;100640.94;;;16.78;43.11
26563;BME280;14217;50.986;5.826;2022-12-20T08:43:12;100636.38;;;16.82;42.86
26563;BME280;14217;50.986;5.826;2022-12-20T08:48:14;100635.13;;;16.46;44.35
26563;BME280;14217;50.986;5.826;2022-12-20T08:53:15;100626.19;;;16.71;43.70
26563;BME280;14217;50.986;5.826;2022-12-20T08:58:18;100615.81;;;16.66;43.69
26563;BME280;14217;50.986;5.826;2022-12-20T09:03:20;100617.94;;;16.80;43.64
26563;BME280;14217;50.986;5.826;2022-12-20T09:08:23;100608.81;;;16.65;43.76
26563;BME280;14217;50.986;5.826;2022-12-20T09:13:25;100612.31;;;16.66;43.69
26563;BME280;14217;50.986;5.826;2022-12-20T09:18:26;100609.41;;;16.72;43.75
26563;BME280;14217;50.986;5.826;2022-12-20T09:23:29;100610.81;;;16.82;43.37
26563;BME280;14217;50.986;5.826;2022-12-20T09:28:32;100621.47;;;16.79;43.26
26563;BME280;14217;50.986;5.826;2022-12-20T09:33:34;100616.16;;;16.79;43.35
26563;BME280;14217;50.986;5.826;2022-12-20T09:38:37;100628.59;;;16.77;43.43
26563;BME280;14217;50.986;5.826;2022-12-20T09:43:39;100604.38;;;16.88;43.29
26563;BME280;14217;50.986;5.826;2022-12-20T09:48:43;100606.78;;;16.94;43.23
26563;BME280;14217;50.986;5.826;2022-12-20T09:59:20;100608.34;;;16.32;46.13
26563;BME280;14217;50.986;5.826;2022-12-20T10:04:31;100600.00;;;16.65;45.08
26563;BME280;14217;50.986;5.826;2022-12-20T10:09:45;100600.22;;;16.82;44.41
26563;BME280;14217;50.986;5.826;2022-12-20T10:25:33;100576.94;;;16.69;44.33
26563;BME280;14217;50.986;5.826;2022-12-20T10:30:36;100579.72;;;16.88;44.02
26563;BME280;14217;50.986;5.826;2022-12-20T10:35:39;100557.09;;;16.79;44.01
26563;BME280;14217;50.986;5.826;2022-12-20T10:46:16;100561.00;;;16.70;44.41
26563;BME280;14217;50.986;5.826;2022-12-20T10:51:20;100556.88;;;16.63;44.41
26563;BME280;14217;50.986;5.826;2022-12-20T10:56:33;100553.88;;;16.50;45.57
26563;BME280;14217;50.986;5.826;2022-12-20T11:01:42;100548.81;;;16.66;44.96
26563;BME280;14217;50.986;5.826;2022-12-20T11:06:45;100554.53;;;16.77;44.93
26563;BME280;14217;50.986;5.826;2022-12-20T11:12:04;100552.66;;;16.81;44.40
26563;BME280;14217;50.986;5.826;2022-12-20T11:22:40;100539.94;;;16.46;45.94
26563;BME280;14217;50.986;5.826;2022-12-20T11:27:50;100537.38;;;16.65;45.48
26563;BME280;14217;50.986;5.826;2022-12-20T11:33:34;100540.50;;;16.75;45.01
26563;BME280;14217;50.986;5.826;2022-12-20T11:55:25;100525.84;;;16.89;44.54
26563;BME280;14217;50.986;5.826;2022-12-20T12:00:27;100531.75;;;16.95;44.19
26563;BME280;14217;50.986;5.826;2022-12-20T12:05:59;100519.22;;;16.99;44.08
26563;BME280;14217;50.986;5.826;2022-12-20T12:11:09;100504.25;;;16.99;44.09
26563;BME280;14217;50.986;5.826;2022-12-20T12:16:45;100497.22;;;16.98;43.91
26563;BME280;14217;50.986;5.826;2022-12-20T12:22:04;100497.00;;;17.03;43.72
26563;BME280;14217;50.986;5.826;2022-12-20T12:27:25;100499.91;;;16.97;44.12
26563;BME280;14217;50.986;5.826;2022-12-20T12:32:33;100495.50;;;16.97;43.83
26563;BME280;14217;50.986;5.826;2022-12-20T12:37:54;100490.13;;;16.99;43.80
26563;BME280;14217;50.986;5.826;2022-12-20T12:44:05;100481.28;;;17.00;43.74
26563;BME280;14217;50.986;5.826;2022-12-20T12:49:18;100485.72;;;16.99;44.02
26563;BME280;14217;50.986;5.826;2022-12-20T12:54:34;100494.44;;;17.01;44.02
26563;BME280;14217;50.986;5.826;2022-12-20T13:10:01;100508.47;;;17.03;43.68
26563;BME280;14217;50.986;5.826;2022-12-20T13:20:29;100496.34;;;16.98;43.80
26563;BME280;14217;50.986;5.826;2022-12-20T13:25:33;100495.34;;;17.00;43.76
26563;BME280;14217;50.986;5.826;2022-12-20T13:30:38;100496.22;;;17.01;43.78
26563;BME280;14217;50.986;5.826;2022-12-20T13:35:46;100475.91;;;17.01;43.68
26563;BME280;14217;50.986;5.826;2022-12-20T13:40:57;100488.16;;;17.04;43.85
26563;BME280;14217;50.986;5.826;2022-12-20T13:51:16;100472.13;;;17.07;43.45
26563;BME280;14217;50.986;5.826;2022-12-20T13:56:32;100486.78;;;16.95;44.12
26563;BME280;14217;50.986;5.826;2022-12-20T14:01:36;100472.31;;;17.02;43.68
26563;BME280;14217;50.986;5.826;2022-12-20T14:06:57;100468.03;;;17.00;43.67
26563;BME280;14217;50.986;5.826;2022-12-20T14:12:04;100468.09;;;16.98;43.86
26563;BME280;14217;50.986;5.826;2022-12-20T14:17:32;100466.25;;;17.00;43.68
26563;BME280;14217;50.986;5.826;2022-12-20T14:22:34;100460.22;;;16.97;43.89
26563;BME280;14217;50.986;5.826;2022-12-20T14:27:37;100453.06;;;16.99;43.89
26563;BME280;14217;50.986;5.826;2022-12-20T14:32:39;100460.22;;;16.97;43.81
26563;BME280;14217;50.986;5.826;2022-12-20T14:37:52;100447.13;;;16.94;43.89
26563;BME280;14217;50.986;5.826;2022-12-20T14:42:55;100446.41;;;16.90;44.04
26563;BME280;14217;50.986;5.826;2022-12-20T14:48:04;100448.19;;;16.90;43.84
26563;BME280;14217;50.986;5.826;2022-12-20T14:53:17;100434.97;;;16.90;44.06
26563;BME280;14217;50.986;5.826;2022-12-20T14:58:32;100434.69;;;16.96;43.64
26563;BME280;14217;50.986;5.826;2022-12-20T15:03:34;100437.41;;;16.94;44.52
26563;BME280;14217;50.986;5.826;2022-12-20T15:08:36;100432.69;;;17.01;44.45
26563;BME280;14217;50.986;5.826;2022-12-20T15:13:40;100426.75;;;16.96;44.15
26563;BME280;14217;50.986;5.826;2022-12-20T15:18:51;100429.53;;;16.93;44.17
26563;BME280;14217;50.986;5.826;2022-12-20T15:23:55;100427.41;;;17.01;44.01
26563;BME280;14217;50.986;5.826;2022-12-20T15:28:57;100428.72;;;16.91;44.27
26563;BME280;14217;50.986;5.826;2022-12-20T15:34:09;100425.16;;;16.92;44.20
26563;BME280;14217;50.986;5.826;2022-12-20T15:39:13;100433.16;;;16.90;45.29
26563;BME280;14217;50.986;5.826;2022-12-20T15:44:19;100430.97;;;17.00;45.96
26563;BME280;14217;50.986;5.826;2022-12-20T15:49:23;100425.81;;;16.97;46.57
26563;BME280;14217;50.986;5.826;2022-12-20T15:54:31;100430.78;;;17.04;46.05
26563;BME280;14217;50.986;5.826;2022-12-20T15:59:34;100430.78;;;17.04;45.70
26563;BME280;14217;50.986;5.826;2022-12-20T16:04:56;100431.78;;;17.02;45.64
26563;BME280;14217;50.986;5.826;2022-12-20T16:09:59;100435.34;;;17.01;45.45
26563;BME280;14217;50.986;5.826;2022-12-20T16:15:01;100434.63;;;16.97;45.48
26563;BME280;14217;50.986;5.826;2022-12-20T16:20:04;100426.69;;;16.97;45.10
26563;BME280;14217;50.986;5.826;2022-12-20T16:25:23;100432.09;;;16.94;44.92
26563;BME280;14217;50.986;5.826;2022-12-20T16:30:26;100438.78;;;17.03;44.70
26563;BME280;14217;50.986;5.826;2022-12-20T16:35:35;100424.47;;;17.07;44.59
26563;BME280;14217;50.986;5.826;2022-12-20T16:40:39;100415.09;;;17.00;44.81
26563;BME280;14217;50.986;5.826;2022-12-20T16:45:42;100421.56;;;16.93;44.70
26563;BME280;14217;50.986;5.826;2022-12-20T16:50:44;100422.88;;;17.03;44.68
26563;BME280;14217;50.986;5.826;2022-12-20T16:55:46;100419.59;;;16.98;44.67
26563;BME280;14217;50.986;5.826;2022-12-20T17:00:47;100414.03;;;17.04;44.43
26563;BME280;14217;50.986;5.826;2022-12-20T17:05:50;100408.88;;;16.60;48.06
26563;BME280;14217;50.986;5.826;2022-12-20T17:10:52;100399.97;;;16.83;46.84
26563;BME280;14217;50.986;5.826;2022-12-20T17:15:53;100405.69;;;16.93;46.37
26563;BME280;14217;50.986;5.826;2022-12-20T17:20:56;100405.94;;;17.07;45.62
26563;BME280;14217;50.986;5.826;2022-12-20T17:25:58;100400.75;;;17.05;45.36
26563;BME280;14217;50.986;5.826;2022-12-20T17:31:00;100410.44;;;17.05;45.37
26563;BME280;14217;50.986;5.826;2022-12-20T17:36:08;100409.53;;;17.06;45.30
26563;BME280;14217;50.986;5.826;2022-12-20T17:41:40;100419.41;;;16.82;45.81
26563;BME280;14217;50.986;5.826;2022-12-20T17:46:45;100412.41;;;16.81;45.78
26563;BME280;14217;50.986;5.826;2022-12-20T17:51:48;100415.50;;;16.91;45.22
26563;BME280;14217;50.986;5.826;2022-12-20T17:56:51;100420.88;;;16.89;45.33
26563;BME280;14217;50.986;5.826;2022-12-20T18:01:57;100416.09;;;16.97;44.86
26563;BME280;14217;50.986;5.826;2022-12-20T18:07:00;100419.28;;;16.85;44.95
26563;BME280;14217;50.986;5.826;2022-12-20T18:12:03;100416.47;;;17.09;44.71
26563;BME280;14217;50.986;5.826;2022-12-20T18:17:05;100415.31;;;16.95;45.66
26563;BME280;14217;50.986;5.826;2022-12-20T18:22:07;100417.84;;;17.17;44.84
26563;BME280;14217;50.986;5.826;2022-12-20T18:27:10;100422.28;;;17.17;44.86
26563;BME280;14217;50.986;5.826;2022-12-20T18:32:12;100427.59;;;16.96;45.36
26563;BME280;14217;50.986;5.826;2022-12-20T18:37:14;100420.19;;;17.04;45.80
26563;BME280;14217;50.986;5.826;2022-12-20T18:42:16;100413.66;;;17.12;45.29
26563;BME280;14217;50.986;5.826;2022-12-20T18:47:18;100421.50;;;17.15;45.11
26563;BME280;14217;50.986;5.826;2022-12-20T18:52:20;100431.28;;;17.13;45.22
26563;BME280;14217;50.986;5.826;2022-12-20T18:57:22;100426.13;;;17.10;45.17
26563;BME280;14217;50.986;5.826;2022-12-20T19:02:24;100430.03;;;17.01;44.99
26563;BME280;14217;50.986;5.826;2022-12-20T19:07:26;100435.84;;;17.09;44.79
26563;BME280;14217;50.986;5.826;2022-12-20T19:12:28;100423.28;;;17.14;44.65
26563;BME280;14217;50.986;5.826;2022-12-20T19:17:31;100408.25;;;17.15;44.48
26563;BME280;14217;50.986;5.826;2022-12-20T19:22:33;100410.91;;;17.15;44.50
26563;BME280;14217;50.986;5.826;2022-12-20T19:27:36;100403.75;;;17.17;44.61
26563;BME280;14217;50.986;5.826;2022-12-20T19:32:38;100415.63;;;17.08;44.51
26563;BME280;14217;50.986;5.826;2022-12-20T19:37:40;100409.03;;;16.98;44.65
26563;BME280;14217;50.986;5.826;2022-12-20T19:42:42;100414.69;;;16.89;44.83
26563;BME280;14217;50.986;5.826;2022-12-20T19:47:44;100404.25;;;17.06;44.71
26563;BME280;14217;50.986;5.826;2022-12-20T19:52:46;100413.03;;;17.06;44.54
26563;BME280;14217;50.986;5.826;2022-12-20T19:57:48;100410.59;;;17.02;44.75
26563;BME280;14217;50.986;5.826;2022-12-20T20:02:50;100405.38;;;17.00;44.69
26563;BME280;14217;50.986;5.826;2022-12-20T20:07:52;100416.28;;;16.93;44.75
26563;BME280;14217;50.986;5.826;2022-12-20T20:12:55;100404.56;;;16.98;44.71
26563;BME280;14217;50.986;5.826;2022-12-20T20:17:57;100421.97;;;17.04;44.46
26563;BME280;14217;50.986;5.826;2022-12-20T20:22:59;100419.69;;;17.15;44.31
26563;BME280;14217;50.986;5.826;2022-12-20T20:28:02;100403.44;;;17.04;44.36
26563;BME280;14217;50.986;5.826;2022-12-20T20:33:04;100424.41;;;17.09;44.24
26563;BME280;14217;50.986;5.826;2022-12-20T20:38:09;100429.06;;;17.03;44.51
26563;BME280;14217;50.986;5.826;2022-12-20T20:43:11;100425.06;;;17.14;44.23
26563;BME280;14217;50.986;5.826;2022-12-20T20:48:13;100433.09;;;17.12;44.74
26563;BME280;14217;50.986;5.826;2022-12-20T20:53:16;100417.69;;;17.01;45.19
26563;BME280;14217;50.986;5.826;2022-12-20T20:58:18;100424.09;;;17.16;44.58
26563;BME280;14217;50.986;5.826;2022-12-20T21:03:20;100425.06;;;17.14;44.61
26563;BME280;14217;50.986;5.826;2022-12-20T21:08:22;100418.28;;;17.08;44.88
26563;BME280;14217;50.986;5.826;2022-12-20T21:13:24;100423.44;;;16.91;45.50
26563;BME280;14217;50.986;5.826;2022-12-20T21:18:26;100425.66;;;16.79;45.55
26563;BME280;14217;50.986;5.826;2022-12-20T21:23:28;100416.50;;;16.67;45.75
26563;BME280;14217;50.986;5.826;2022-12-20T21:28:30;100415.56;;;16.69;45.87
26563;BME280;14217;50.986;5.826;2022-12-20T21:33:32;100415.06;;;16.81;45.52
26563;BME280;14217;50.986;5.826;2022-12-20T21:38:34;100419.53;;;16.79;45.59
26563;BME280;14217;50.986;5.826;2022-12-20T21:43:36;100415.91;;;17.02;44.77
26563;BME280;14217;50.986;5.826;2022-12-20T21:48:40;100393.22;;;17.15;44.60
26563;BME280;14217;50.986;5.826;2022-12-20T21:53:47;100402.16;;;17.13;44.39
26563;BME280;14217;50.986;5.826;2022-12-20T21:58:50;100393.00;;;17.20;44.19
26563;BME280;14217;50.986;5.826;2022-12-20T22:03:57;100399.09;;;17.22;44.25
26563;BME280;14217;50.986;5.826;2022-12-20T22:09:00;100414.28;;;17.18;44.16
26563;BME280;14217;50.986;5.826;2022-12-20T22:14:02;100416.50;;;17.27;44.13
26563;BME280;14217;50.986;5.826;2022-12-20T22:19:04;100410.41;;;17.25;44.22
26563;BME280;14217;50.986;5.826;2022-12-20T22:24:07;100420.69;;;16.72;51.53
26563;BME280;14217;50.986;5.826;2022-12-20T22:29:09;100417.09;;;16.54;52.69
26563;BME280;14217;50.986;5.826;2022-12-20T22:34:11;100417.34;;;16.68;51.75
26563;BME280;14217;50.986;5.826;2022-12-20T22:39:13;100425.66;;;16.79;50.34
26563;BME280;14217;50.986;5.826;2022-12-20T22:44:15;100435.16;;;16.85;49.92
26563;BME280;14217;50.986;5.826;2022-12-20T22:49:17;100434.28;;;17.05;48.52
26563;BME280;14217;50.986;5.826;2022-12-20T22:54:19;100441.34;;;17.04;48.12
26563;BME280;14217;50.986;5.826;2022-12-20T22:59:21;100446.91;;;16.98;48.04
26563;BME280;14217;50.986;5.826;2022-12-20T23:04:23;100453.69;;;17.05;47.57
26563;BME280;14217;50.986;5.826;2022-12-20T23:09:25;100459.63;;;17.11;47.44
26563;BME280;14217;50.986;5.826;2022-12-20T23:14:27;100451.47;;;17.15;46.89
26563;BME280;14217;50.986;5.826;2022-12-20T23:19:47;100453.63;;;17.26;46.59
26563;BME280;14217;50.986;5.826;2022-12-20T23:25:18;100452.41;;;17.14;46.57
26563;BME280;14217;50.986;5.826;2022-12-20T23:30:22;100459.28;;;17.18;46.43
26563;BME280;14217;50.986;5.826;2022-12-20T23:35:24;100451.41;;;17.17;46.25
26563;BME280;14217;50.986;5.826;2022-12-20T23:40:27;100451.78;;;17.07;46.50
26563;BME280;14217;50.986;5.826;2022-12-20T23:45:30;100458.84;;;17.27;45.79
26563;BME280;14217;50.986;5.826;2022-12-20T23:50:32;100458.53;;;17.35;45.67
26563;BME280;14217;50.986;5.826;2022-12-20T23:55:34;100448.53;;;17.21;45.87
